KFCS/FCS METAR and TAF weather

Enter ICAO airport designator
Station Type Date Time Source
KFCS METAR 2021/06/22 22:58 UTC NOAA

KFCS 222258Z AUTO 35003KT 10SM FEW150 34/02 A2993 RMK AO2 SLP072 T03400017 $


Station Type Date Time Source
KFCS Decoded METAR 2021/06/22 22:58 UTC NOAA

Fort Carson, CO, United States (KFCS) 38-42N 104-46W 1789M
Jun 22, 2021 - 06:58 PM EDT / 2021.06.22 2258 UTC
Wind: from the N (350 degrees) at 3 MPH (3 KT):0
Visibility: 10 mile(s):0
Sky conditions: mostly clear
Temperature: 93.2 F (34.0 C)
Dew Point: 35.1 F (1.7 C)
Relative Humidity: 12%
Pressure (altimeter): 29.93 in. Hg (1013 hPa)
ob: KFCS 222258Z AUTO 35003KT 10SM FEW150 34/02 A2993 RMK AO2 SLP072 T03400017
cycle: 23

Station Type Date Time Source
KFCS TAF 2021/06/22 21:18 UTC NOAA

TAF KFCS 222100Z 2221/2403 22015G25KT 9999 VCTS BKN120CB QNH2989INS
BECMG 2300/2301 06009KT 9999 NSW SCT190 QNH2990INS
BECMG 2308/2309 31009KT 9999 SKC QNH2994INS
BECMG 2317/2318 27012G18KT 9999 BKN140 QNH2994INS
BECMG 2323/2324 27006KT 9999 SCT160 QNH2997INS TX35/2221Z TN15/2311Z

Example: see airport list